sensor_id;sensor_type;location;lat;lon;timestamp;P1;durP1;ratioP1;P2;durP2;ratioP2
34212;SDS011;20477;51.390;8.102;2022-08-16T00:02:29;17.63;;;11.38;;
34212;SDS011;20477;51.390;8.102;2022-08-16T00:04:56;16.80;;;11.43;;
34212;SDS011;20477;51.390;8.102;2022-08-16T00:07:25;14.90;;;11.27;;
34212;SDS011;20477;51.390;8.102;2022-08-16T00:09:55;14.23;;;11.70;;
34212;SDS011;20477;51.390;8.102;2022-08-16T00:12:25;15.35;;;10.68;;
34212;SDS011;20477;51.390;8.102;2022-08-16T00:14:53;12.20;;;10.70;;
34212;SDS011;20477;51.390;8.102;2022-08-16T00:17:22;12.35;;;11.07;;
34212;SDS011;20477;51.390;8.102;2022-08-16T00:19:51;17.13;;;10.95;;
34212;SDS011;20477;51.390;8.102;2022-08-16T00:22:21;14.48;;;10.40;;
34212;SDS011;20477;51.390;8.102;2022-08-16T00:24:50;11.55;;;10.40;;
34212;SDS011;20477;51.390;8.102;2022-08-16T00:27:19;11.93;;;10.65;;
34212;SDS011;20477;51.390;8.102;2022-08-16T00:29:47;14.35;;;10.98;;
34212;SDS011;20477;51.390;8.102;2022-08-16T00:32:35;12.40;;;10.93;;
34212;SDS011;20477;51.390;8.102;2022-08-16T00:35:04;14.40;;;9.95;;
34212;SDS011;20477;51.390;8.102;2022-08-16T00:37:41;19.67;;;11.38;;
34212;SDS011;20477;51.390;8.102;2022-08-16T00:43:17;13.27;;;10.10;;
34212;SDS011;20477;51.390;8.102;2022-08-16T00:46:16;13.07;;;10.80;;
34212;SDS011;20477;51.390;8.102;2022-08-16T00:49:01;19.73;;;11.10;;
34212;SDS011;20477;51.390;8.102;2022-08-16T00:51:30;14.45;;;12.27;;
34212;SDS011;20477;51.390;8.102;2022-08-16T00:53:59;17.55;;;12.10;;
34212;SDS011;20477;51.390;8.102;2022-08-16T00:56:30;17.15;;;12.35;;
34212;SDS011;20477;51.390;8.102;2022-08-16T00:59:20;15.88;;;12.60;;
34212;SDS011;20477;51.390;8.102;2022-08-16T01:01:49;13.40;;;11.70;;
34212;SDS011;20477;51.390;8.102;2022-08-16T01:04:18;13.98;;;12.48;;
34212;SDS011;20477;51.390;8.102;2022-08-16T01:06:56;12.90;;;11.18;;
34212;SDS011;20477;51.390;8.102;2022-08-16T01:09:28;17.27;;;11.43;;
34212;SDS011;20477;51.390;8.102;2022-08-16T01:12:03;14.10;;;11.57;;
34212;SDS011;20477;51.390;8.102;2022-08-16T01:14:40;19.33;;;12.30;;
34212;SDS011;20477;51.390;8.102;2022-08-16T01:17:12;16.17;;;11.40;;
34212;SDS011;20477;51.390;8.102;2022-08-16T01:19:42;15.50;;;11.85;;
34212;SDS011;20477;51.390;8.102;2022-08-16T01:25:18;17.05;;;10.32;;
34212;SDS011;20477;51.390;8.102;2022-08-16T01:27:48;15.63;;;11.07;;
34212;SDS011;20477;51.390;8.102;2022-08-16T01:30:19;18.50;;;11.68;;
34212;SDS011;20477;51.390;8.102;2022-08-16T01:32:52;15.20;;;10.63;;
34212;SDS011;20477;51.390;8.102;2022-08-16T01:35:42;14.30;;;11.70;;
34212;SDS011;20477;51.390;8.102;2022-08-16T01:41:00;15.43;;;11.32;;
34212;SDS011;20477;51.390;8.102;2022-08-16T01:43:30;15.48;;;11.38;;
34212;SDS011;20477;51.390;8.102;2022-08-16T01:45:59;14.40;;;10.88;;
34212;SDS011;20477;51.390;8.102;2022-08-16T01:48:48;12.15;;;10.15;;
34212;SDS011;20477;51.390;8.102;2022-08-16T01:51:20;13.65;;;10.90;;
34212;SDS011;20477;51.390;8.102;2022-08-16T01:53:49;14.45;;;11.15;;
34212;SDS011;20477;51.390;8.102;2022-08-16T01:56:21;15.85;;;11.25;;
34212;SDS011;20477;51.390;8.102;2022-08-16T01:58:51;15.40;;;11.63;;
34212;SDS011;20477;51.390;8.102;2022-08-16T02:01:20;15.48;;;11.45;;
34212;SDS011;20477;51.390;8.102;2022-08-16T02:03:48;14.70;;;11.57;;
34212;SDS011;20477;51.390;8.102;2022-08-16T02:06:17;14.90;;;11.13;;
34212;SDS011;20477;51.390;8.102;2022-08-16T02:09:00;13.27;;;11.73;;
34212;SDS011;20477;51.390;8.102;2022-08-16T02:11:30;12.18;;;10.75;;
34212;SDS011;20477;51.390;8.102;2022-08-16T02:14:14;15.90;;;11.98;;
34212;SDS011;20477;51.390;8.102;2022-08-16T02:16:46;14.02;;;10.90;;
34212;SDS011;20477;51.390;8.102;2022-08-16T02:19:14;13.68;;;10.93;;
34212;SDS011;20477;51.390;8.102;2022-08-16T02:21:48;16.92;;;10.50;;
34212;SDS011;20477;51.390;8.102;2022-08-16T02:24:36;13.23;;;11.18;;
34212;SDS011;20477;51.390;8.102;2022-08-16T02:27:07;14.07;;;10.23;;
34212;SDS011;20477;51.390;8.102;2022-08-16T02:29:35;13.20;;;10.10;;
34212;SDS011;20477;51.390;8.102;2022-08-16T02:32:06;12.48;;;10.10;;
34212;SDS011;20477;51.390;8.102;2022-08-16T02:34:58;12.85;;;10.43;;
34212;SDS011;20477;51.390;8.102;2022-08-16T02:37:26;15.80;;;9.63;;
34212;SDS011;20477;51.390;8.102;2022-08-16T02:40:14;13.20;;;10.48;;
34212;SDS011;20477;51.390;8.102;2022-08-16T02:42:44;14.00;;;9.57;;
34212;SDS011;20477;51.390;8.102;2022-08-16T02:45:16;14.13;;;10.13;;
34212;SDS011;20477;51.390;8.102;2022-08-16T02:47:45;15.80;;;9.07;;
34212;SDS011;20477;51.390;8.102;2022-08-16T02:50:27;18.00;;;9.23;;
34212;SDS011;20477;51.390;8.102;2022-08-16T02:53:14;12.98;;;8.88;;
34212;SDS011;20477;51.390;8.102;2022-08-16T02:55:48;8.95;;;7.82;;
34212;SDS011;20477;51.390;8.102;2022-08-16T02:58:15;12.75;;;8.60;;
34212;SDS011;20477;51.390;8.102;2022-08-16T03:00:43;9.75;;;8.75;;
34212;SDS011;20477;51.390;8.102;2022-08-16T03:03:15;9.63;;;8.50;;
34212;SDS011;20477;51.390;8.102;2022-08-16T03:05:43;10.48;;;8.63;;
34212;SDS011;20477;51.390;8.102;2022-08-16T03:08:18;14.43;;;8.70;;
34212;SDS011;20477;51.390;8.102;2022-08-16T03:11:06;12.38;;;8.20;;
34212;SDS011;20477;51.390;8.102;2022-08-16T03:13:46;13.30;;;8.02;;
34212;SDS011;20477;51.390;8.102;2022-08-16T03:16:16;8.85;;;7.95;;
34212;SDS011;20477;51.390;8.102;2022-08-16T03:19:04;9.07;;;7.35;;
34212;SDS011;20477;51.390;8.102;2022-08-16T03:21:32;10.88;;;7.55;;
34212;SDS011;20477;51.390;8.102;2022-08-16T03:24:06;8.60;;;7.38;;
34212;SDS011;20477;51.390;8.102;2022-08-16T03:26:54;11.32;;;7.80;;
34212;SDS011;20477;51.390;8.102;2022-08-16T03:29:27;14.23;;;7.70;;
34212;SDS011;20477;51.390;8.102;2022-08-16T03:31:57;9.60;;;8.15;;
34212;SDS011;20477;51.390;8.102;2022-08-16T03:34:27;14.38;;;7.97;;
34212;SDS011;20477;51.390;8.102;2022-08-16T03:36:55;9.80;;;8.23;;
34212;SDS011;20477;51.390;8.102;2022-08-16T03:39:22;10.32;;;7.18;;
34212;SDS011;20477;51.390;8.102;2022-08-16T03:41:50;12.23;;;7.63;;
34212;SDS011;20477;51.390;8.102;2022-08-16T03:44:25;11.63;;;8.00;;
34212;SDS011;20477;51.390;8.102;2022-08-16T03:47:10;8.27;;;7.15;;
34212;SDS011;20477;51.390;8.102;2022-08-16T03:49:37;9.68;;;8.30;;
34212;SDS011;20477;51.390;8.102;2022-08-16T03:52:04;13.13;;;7.93;;
34212;SDS011;20477;51.390;8.102;2022-08-16T03:54:32;9.95;;;7.93;;
34212;SDS011;20477;51.390;8.102;2022-08-16T03:57:02;9.15;;;7.43;;
34212;SDS011;20477;51.390;8.102;2022-08-16T03:59:30;9.43;;;7.55;;
34212;SDS011;20477;51.390;8.102;2022-08-16T04:01:59;12.48;;;7.75;;
34212;SDS011;20477;51.390;8.102;2022-08-16T04:04:27;9.38;;;7.25;;
34212;SDS011;20477;51.390;8.102;2022-08-16T04:06:59;11.63;;;7.40;;
34212;SDS011;20477;51.390;8.102;2022-08-16T04:09:32;12.57;;;7.88;;
34212;SDS011;20477;51.390;8.102;2022-08-16T04:12:02;12.95;;;7.63;;
34212;SDS011;20477;51.390;8.102;2022-08-16T04:14:50;11.70;;;8.45;;
34212;SDS011;20477;51.390;8.102;2022-08-16T04:17:17;9.45;;;6.78;;
34212;SDS011;20477;51.390;8.102;2022-08-16T04:19:44;8.07;;;6.80;;
34212;SDS011;20477;51.390;8.102;2022-08-16T04:22:12;7.38;;;6.22;;
34212;SDS011;20477;51.390;8.102;2022-08-16T04:24:42;11.93;;;6.45;;
34212;SDS011;20477;51.390;8.102;2022-08-16T04:27:20;9.98;;;7.05;;
34212;SDS011;20477;51.390;8.102;2022-08-16T04:29:54;8.88;;;7.57;;
34212;SDS011;20477;51.390;8.102;2022-08-16T04:32:28;9.60;;;7.65;;
34212;SDS011;20477;51.390;8.102;2022-08-16T04:34:56;13.57;;;7.72;;
34212;SDS011;20477;51.390;8.102;2022-08-16T04:37:22;12.13;;;8.00;;
34212;SDS011;20477;51.390;8.102;2022-08-16T04:39:50;11.98;;;7.82;;
34212;SDS011;20477;51.390;8.102;2022-08-16T04:42:22;8.98;;;7.25;;
34212;SDS011;20477;51.390;8.102;2022-08-16T04:44:52;11.45;;;7.05;;
34212;SDS011;20477;51.390;8.102;2022-08-16T04:47:25;11.32;;;7.00;;
34212;SDS011;20477;51.390;8.102;2022-08-16T04:50:04;9.93;;;7.78;;
34212;SDS011;20477;51.390;8.102;2022-08-16T04:52:34;6.85;;;6.15;;
34212;SDS011;20477;51.390;8.102;2022-08-16T04:55:03;9.70;;;6.85;;
34212;SDS011;20477;51.390;8.102;2022-08-16T04:57:32;10.63;;;6.85;;
34212;SDS011;20477;51.390;8.102;2022-08-16T04:59:59;8.68;;;7.55;;
34212;SDS011;20477;51.390;8.102;2022-08-16T05:02:48;12.98;;;6.90;;
34212;SDS011;20477;51.390;8.102;2022-08-16T05:05:22;13.70;;;7.00;;
34212;SDS011;20477;51.390;8.102;2022-08-16T05:07:49;9.95;;;6.85;;
34212;SDS011;20477;51.390;8.102;2022-08-16T05:10:26;8.45;;;6.88;;
34212;SDS011;20477;51.390;8.102;2022-08-16T05:12:55;11.30;;;6.80;;
34212;SDS011;20477;51.390;8.102;2022-08-16T05:15:23;7.30;;;6.55;;
34212;SDS011;20477;51.390;8.102;2022-08-16T05:17:50;11.23;;;7.00;;
34212;SDS011;20477;51.390;8.102;2022-08-16T05:20:25;14.35;;;7.25;;
34212;SDS011;20477;51.390;8.102;2022-08-16T05:23:12;10.85;;;7.68;;
34212;SDS011;20477;51.390;8.102;2022-08-16T05:25:40;13.38;;;7.22;;
34212;SDS011;20477;51.390;8.102;2022-08-16T05:28:14;12.65;;;7.07;;
34212;SDS011;20477;51.390;8.102;2022-08-16T05:30:42;13.77;;;7.47;;
34212;SDS011;20477;51.390;8.102;2022-08-16T05:33:09;12.05;;;7.63;;
34212;SDS011;20477;51.390;8.102;2022-08-16T05:35:43;12.00;;;7.53;;
34212;SDS011;20477;51.390;8.102;2022-08-16T05:38:21;9.98;;;6.88;;
34212;SDS011;20477;51.390;8.102;2022-08-16T05:43:31;8.75;;;6.97;;
34212;SDS011;20477;51.390;8.102;2022-08-16T05:46:11;13.35;;;6.63;;
34212;SDS011;20477;51.390;8.102;2022-08-16T05:48:56;9.60;;;6.72;;
34212;SDS011;20477;51.390;8.102;2022-08-16T05:51:30;11.43;;;5.85;;
34212;SDS011;20477;51.390;8.102;2022-08-16T05:54:04;7.20;;;5.00;;
34212;SDS011;20477;51.390;8.102;2022-08-16T05:56:31;11.55;;;5.95;;
34212;SDS011;20477;51.390;8.102;2022-08-16T05:59:03;8.45;;;5.90;;
34212;SDS011;20477;51.390;8.102;2022-08-16T06:01:31;9.70;;;5.95;;
34212;SDS011;20477;51.390;8.102;2022-08-16T06:04:04;12.18;;;5.55;;
34212;SDS011;20477;51.390;8.102;2022-08-16T06:06:39;8.55;;;6.10;;
34212;SDS011;20477;51.390;8.102;2022-08-16T06:09:21;10.95;;;5.55;;
34212;SDS011;20477;51.390;8.102;2022-08-16T06:11:49;9.43;;;5.60;;
34212;SDS011;20477;51.390;8.102;2022-08-16T06:14:16;15.57;;;5.85;;
34212;SDS011;20477;51.390;8.102;2022-08-16T06:16:44;15.07;;;6.20;;
34212;SDS011;20477;51.390;8.102;2022-08-16T06:19:16;8.40;;;5.63;;
34212;SDS011;20477;51.390;8.102;2022-08-16T06:21:43;12.68;;;6.03;;
34212;SDS011;20477;51.390;8.102;2022-08-16T06:24:20;11.20;;;6.28;;
34212;SDS011;20477;51.390;8.102;2022-08-16T06:27:07;11.15;;;5.88;;
34212;SDS011;20477;51.390;8.102;2022-08-16T06:29:35;11.68;;;6.10;;
34212;SDS011;20477;51.390;8.102;2022-08-16T06:32:02;10.38;;;5.15;;
34212;SDS011;20477;51.390;8.102;2022-08-16T06:34:32;8.13;;;5.50;;
34212;SDS011;20477;51.390;8.102;2022-08-16T06:37:19;6.88;;;4.85;;
34212;SDS011;20477;51.390;8.102;2022-08-16T06:39:46;10.35;;;5.40;;
34212;SDS011;20477;51.390;8.102;2022-08-16T06:42:15;10.10;;;5.28;;
34212;SDS011;20477;51.390;8.102;2022-08-16T06:44:44;9.60;;;5.03;;
34212;SDS011;20477;51.390;8.102;2022-08-16T06:47:12;9.23;;;4.85;;
34212;SDS011;20477;51.390;8.102;2022-08-16T06:49:42;7.72;;;4.68;;
34212;SDS011;20477;51.390;8.102;2022-08-16T06:52:19;6.95;;;5.28;;
34212;SDS011;20477;51.390;8.102;2022-08-16T06:55:06;8.38;;;4.72;;
34212;SDS011;20477;51.390;8.102;2022-08-16T06:57:39;10.50;;;4.93;;
34212;SDS011;20477;51.390;8.102;2022-08-16T07:00:08;8.13;;;4.72;;
34212;SDS011;20477;51.390;8.102;2022-08-16T07:02:50;12.10;;;5.47;;
34212;SDS011;20477;51.390;8.102;2022-08-16T07:05:19;6.47;;;4.32;;
34212;SDS011;20477;51.390;8.102;2022-08-16T07:08:06;7.80;;;4.82;;
34212;SDS011;20477;51.390;8.102;2022-08-16T07:10:36;6.68;;;4.78;;
34212;SDS011;20477;51.390;8.102;2022-08-16T07:13:07;7.28;;;4.65;;
34212;SDS011;20477;51.390;8.102;2022-08-16T07:15:55;9.18;;;4.30;;
34212;SDS011;20477;51.390;8.102;2022-08-16T07:18:25;5.03;;;3.92;;
34212;SDS011;20477;51.390;8.102;2022-08-16T07:20:52;7.65;;;4.80;;
34212;SDS011;20477;51.390;8.102;2022-08-16T07:23:24;6.75;;;4.55;;
34212;SDS011;20477;51.390;8.102;2022-08-16T07:26:05;8.73;;;4.60;;
34212;SDS011;20477;51.390;8.102;2022-08-16T07:28:34;9.75;;;4.57;;
34212;SDS011;20477;51.390;8.102;2022-08-16T07:31:01;7.13;;;4.93;;
34212;SDS011;20477;51.390;8.102;2022-08-16T07:33:32;8.00;;;4.95;;
34212;SDS011;20477;51.390;8.102;2022-08-16T07:36:20;11.00;;;4.80;;
34212;SDS011;20477;51.390;8.102;2022-08-16T07:38:48;8.18;;;4.90;;
34212;SDS011;20477;51.390;8.102;2022-08-16T07:41:15;10.20;;;5.00;;
34212;SDS011;20477;51.390;8.102;2022-08-16T07:43:44;7.75;;;4.15;;
34212;SDS011;20477;51.390;8.102;2022-08-16T07:46:12;9.27;;;4.93;;
34212;SDS011;20477;51.390;8.102;2022-08-16T07:49:00;11.20;;;5.10;;
34212;SDS011;20477;51.390;8.102;2022-08-16T07:51:36;6.68;;;4.28;;
34212;SDS011;20477;51.390;8.102;2022-08-16T07:54:04;5.63;;;4.45;;
34212;SDS011;20477;51.390;8.102;2022-08-16T07:56:35;8.93;;;4.27;;
34212;SDS011;20477;51.390;8.102;2022-08-16T07:59:04;5.50;;;4.28;;
34212;SDS011;20477;51.390;8.102;2022-08-16T08:01:31;8.60;;;4.22;;
34212;SDS011;20477;51.390;8.102;2022-08-16T08:03:59;8.25;;;4.18;;
34212;SDS011;20477;51.390;8.102;2022-08-16T08:06:29;10.38;;;5.15;;
34212;SDS011;20477;51.390;8.102;2022-08-16T08:08:58;8.68;;;4.30;;
34212;SDS011;20477;51.390;8.102;2022-08-16T08:11:27;8.45;;;4.68;;
34212;SDS011;20477;51.390;8.102;2022-08-16T08:13:55;11.73;;;4.65;;
34212;SDS011;20477;51.390;8.102;2022-08-16T08:16:29;9.60;;;4.55;;
34212;SDS011;20477;51.390;8.102;2022-08-16T08:18:58;7.45;;;4.43;;
34212;SDS011;20477;51.390;8.102;2022-08-16T08:21:27;8.90;;;4.45;;
34212;SDS011;20477;51.390;8.102;2022-08-16T08:24:15;7.03;;;4.45;;
34212;SDS011;20477;51.390;8.102;2022-08-16T08:26:43;12.95;;;4.30;;
34212;SDS011;20477;51.390;8.102;2022-08-16T08:29:15;10.05;;;3.72;;
34212;SDS011;20477;51.390;8.102;2022-08-16T08:31:49;9.40;;;3.83;;
34212;SDS011;20477;51.390;8.102;2022-08-16T08:34:18;9.50;;;4.28;;
34212;SDS011;20477;51.390;8.102;2022-08-16T08:36:48;7.68;;;4.15;;
34212;SDS011;20477;51.390;8.102;2022-08-16T08:39:20;6.65;;;4.28;;
34212;SDS011;20477;51.390;8.102;2022-08-16T08:41:47;6.45;;;3.83;;
34212;SDS011;20477;51.390;8.102;2022-08-16T08:44:16;8.43;;;3.92;;
34212;SDS011;20477;51.390;8.102;2022-08-16T08:46:55;10.80;;;3.95;;
34212;SDS011;20477;51.390;8.102;2022-08-16T08:49:26;15.63;;;3.42;;
34212;SDS011;20477;51.390;8.102;2022-08-16T08:52:12;5.95;;;3.20;;
34212;SDS011;20477;51.390;8.102;2022-08-16T08:55:00;11.85;;;4.10;;
34212;SDS011;20477;51.390;8.102;2022-08-16T08:57:44;5.55;;;3.60;;
34212;SDS011;20477;51.390;8.102;2022-08-16T09:00:14;6.00;;;4.00;;
34212;SDS011;20477;51.390;8.102;2022-08-16T09:02:46;9.32;;;3.70;;
34212;SDS011;20477;51.390;8.102;2022-08-16T09:05:17;10.98;;;4.15;;
34212;SDS011;20477;51.390;8.102;2022-08-16T09:07:47;8.02;;;3.75;;
34212;SDS011;20477;51.390;8.102;2022-08-16T09:10:27;5.25;;;3.45;;
34212;SDS011;20477;51.390;8.102;2022-08-16T09:12:55;8.60;;;4.00;;
34212;SDS011;20477;51.390;8.102;2022-08-16T09:15:23;8.75;;;3.65;;
34212;SDS011;20477;51.390;8.102;2022-08-16T09:17:58;8.30;;;3.55;;
34212;SDS011;20477;51.390;8.102;2022-08-16T09:20:46;7.85;;;3.40;;
34212;SDS011;20477;51.390;8.102;2022-08-16T09:23:26;8.35;;;3.67;;
34212;SDS011;20477;51.390;8.102;2022-08-16T09:25:54;8.27;;;4.10;;
34212;SDS011;20477;51.390;8.102;2022-08-16T09:28:21;6.65;;;3.47;;
34212;SDS011;20477;51.390;8.102;2022-08-16T09:31:08;6.88;;;3.60;;
34212;SDS011;20477;51.390;8.102;2022-08-16T09:33:36;11.13;;;4.00;;
34212;SDS011;20477;51.390;8.102;2022-08-16T09:36:05;8.38;;;3.97;;
34212;SDS011;20477;51.390;8.102;2022-08-16T09:38:37;6.95;;;3.88;;
34212;SDS011;20477;51.390;8.102;2022-08-16T09:41:06;8.73;;;4.45;;
34212;SDS011;20477;51.390;8.102;2022-08-16T09:43:40;7.32;;;4.13;;
34212;SDS011;20477;51.390;8.102;2022-08-16T09:46:26;8.90;;;3.83;;
34212;SDS011;20477;51.390;8.102;2022-08-16T09:49:12;6.50;;;3.45;;
34212;SDS011;20477;51.390;8.102;2022-08-16T09:51:41;8.45;;;3.88;;
34212;SDS011;20477;51.390;8.102;2022-08-16T09:54:08;10.80;;;4.20;;
34212;SDS011;20477;51.390;8.102;2022-08-16T09:56:42;7.50;;;3.95;;
34212;SDS011;20477;51.390;8.102;2022-08-16T09:59:19;8.07;;;4.25;;
34212;SDS011;20477;51.390;8.102;2022-08-16T10:01:47;9.32;;;4.00;;
34212;SDS011;20477;51.390;8.102;2022-08-16T10:04:17;11.82;;;4.10;;
34212;SDS011;20477;51.390;8.102;2022-08-16T10:07:04;13.95;;;3.90;;
34212;SDS011;20477;51.390;8.102;2022-08-16T10:09:41;9.95;;;4.05;;
34212;SDS011;20477;51.390;8.102;2022-08-16T10:12:21;11.45;;;3.88;;
34212;SDS011;20477;51.390;8.102;2022-08-16T10:15:22;7.55;;;4.32;;
34212;SDS011;20477;51.390;8.102;2022-08-16T10:17:50;5.97;;;3.60;;
34212;SDS011;20477;51.390;8.102;2022-08-16T10:20:27;6.18;;;3.97;;
34212;SDS011;20477;51.390;8.102;2022-08-16T10:22:56;7.63;;;3.58;;
34212;SDS011;20477;51.390;8.102;2022-08-16T10:25:32;9.45;;;4.72;;
34212;SDS011;20477;51.390;8.102;2022-08-16T10:28:19;10.43;;;3.65;;
34212;SDS011;20477;51.390;8.102;2022-08-16T10:30:58;7.05;;;3.40;;
34212;SDS011;20477;51.390;8.102;2022-08-16T10:33:30;10.20;;;4.10;;
34212;SDS011;20477;51.390;8.102;2022-08-16T10:36:00;6.63;;;4.50;;
34212;SDS011;20477;51.390;8.102;2022-08-16T10:38:29;7.15;;;4.28;;
34212;SDS011;20477;51.390;8.102;2022-08-16T10:43:30;12.57;;;4.35;;
34212;SDS011;20477;51.390;8.102;2022-08-16T10:45:58;5.95;;;3.67;;
34212;SDS011;20477;51.390;8.102;2022-08-16T10:48:26;7.85;;;3.60;;
34212;SDS011;20477;51.390;8.102;2022-08-16T10:50:54;18.20;;;3.97;;
34212;SDS011;20477;51.390;8.102;2022-08-16T10:53:27;5.70;;;4.03;;
34212;SDS011;20477;51.390;8.102;2022-08-16T10:55:59;8.40;;;3.97;;
34212;SDS011;20477;51.390;8.102;2022-08-16T10:58:50;10.02;;;4.35;;
34212;SDS011;20477;51.390;8.102;2022-08-16T11:01:17;16.92;;;4.70;;
34212;SDS011;20477;51.390;8.102;2022-08-16T11:04:04;6.93;;;4.03;;
34212;SDS011;20477;51.390;8.102;2022-08-16T11:06:53;14.55;;;3.88;;
34212;SDS011;20477;51.390;8.102;2022-08-16T11:09:40;7.82;;;4.03;;
34212;SDS011;20477;51.390;8.102;2022-08-16T11:12:09;6.70;;;4.18;;
34212;SDS011;20477;51.390;8.102;2022-08-16T11:14:40;12.27;;;4.65;;
34212;SDS011;20477;51.390;8.102;2022-08-16T11:17:27;5.80;;;3.88;;
34212;SDS011;20477;51.390;8.102;2022-08-16T11:19:58;15.32;;;4.30;;
34212;SDS011;20477;51.390;8.102;2022-08-16T11:22:45;16.17;;;4.57;;
34212;SDS011;20477;51.390;8.102;2022-08-16T11:25:16;14.23;;;4.38;;
34212;SDS011;20477;51.390;8.102;2022-08-16T11:28:06;12.55;;;4.95;;
34212;SDS011;20477;51.390;8.102;2022-08-16T11:30:34;22.60;;;4.75;;
34212;SDS011;20477;51.390;8.102;2022-08-16T11:33:05;18.85;;;4.45;;
34212;SDS011;20477;51.390;8.102;2022-08-16T11:35:33;16.92;;;4.22;;
34212;SDS011;20477;51.390;8.102;2022-08-16T11:38:19;6.13;;;3.95;;
34212;SDS011;20477;51.390;8.102;2022-08-16T11:41:07;12.45;;;3.88;;
34212;SDS011;20477;51.390;8.102;2022-08-16T11:43:35;10.05;;;3.75;;
34212;SDS011;20477;51.390;8.102;2022-08-16T11:46:05;8.05;;;3.60;;
34212;SDS011;20477;51.390;8.102;2022-08-16T11:48:55;7.55;;;4.30;;
34212;SDS011;20477;51.390;8.102;2022-08-16T11:51:22;9.05;;;3.50;;
34212;SDS011;20477;51.390;8.102;2022-08-16T11:53:49;7.22;;;4.22;;
34212;SDS011;20477;51.390;8.102;2022-08-16T11:56:17;6.03;;;3.67;;
34212;SDS011;20477;51.390;8.102;2022-08-16T11:58:54;6.18;;;3.60;;
34212;SDS011;20477;51.390;8.102;2022-08-16T12:01:22;10.32;;;3.72;;
34212;SDS011;20477;51.390;8.102;2022-08-16T12:04:09;6.50;;;3.70;;
34212;SDS011;20477;51.390;8.102;2022-08-16T12:06:38;7.95;;;3.78;;
34212;SDS011;20477;51.390;8.102;2022-08-16T12:09:06;9.93;;;4.25;;
34212;SDS011;20477;51.390;8.102;2022-08-16T12:11:35;8.00;;;3.58;;
34212;SDS011;20477;51.390;8.102;2022-08-16T12:14:03;7.78;;;4.15;;
34212;SDS011;20477;51.390;8.102;2022-08-16T12:16:33;12.68;;;3.65;;
34212;SDS011;20477;51.390;8.102;2022-08-16T12:19:05;4.55;;;3.38;;
34212;SDS011;20477;51.390;8.102;2022-08-16T12:21:36;5.80;;;3.63;;
34212;SDS011;20477;51.390;8.102;2022-08-16T12:24:23;10.52;;;4.38;;
34212;SDS011;20477;51.390;8.102;2022-08-16T12:26:51;4.55;;;3.53;;
34212;SDS011;20477;51.390;8.102;2022-08-16T12:29:19;8.63;;;3.70;;
34212;SDS011;20477;51.390;8.102;2022-08-16T12:31:47;7.50;;;3.90;;
34212;SDS011;20477;51.390;8.102;2022-08-16T12:34:34;6.28;;;3.80;;
34212;SDS011;20477;51.390;8.102;2022-08-16T12:37:02;9.18;;;4.00;;
34212;SDS011;20477;51.390;8.102;2022-08-16T12:39:36;5.68;;;4.00;;
34212;SDS011;20477;51.390;8.102;2022-08-16T12:42:15;8.60;;;3.67;;
34212;SDS011;20477;51.390;8.102;2022-08-16T12:44:46;9.55;;;4.10;;
34212;SDS011;20477;51.390;8.102;2022-08-16T12:47:16;11.85;;;3.78;;
34212;SDS011;20477;51.390;8.102;2022-08-16T12:50:01;4.72;;;3.78;;
34212;SDS011;20477;51.390;8.102;2022-08-16T12:52:30;8.02;;;4.25;;
34212;SDS011;20477;51.390;8.102;2022-08-16T12:54:59;5.78;;;3.85;;
34212;SDS011;20477;51.390;8.102;2022-08-16T12:57:28;6.03;;;3.88;;
34212;SDS011;20477;51.390;8.102;2022-08-16T13:00:03;10.25;;;3.80;;
34212;SDS011;20477;51.390;8.102;2022-08-16T13:02:32;9.23;;;3.58;;
34212;SDS011;20477;51.390;8.102;2022-08-16T13:05:02;6.13;;;3.47;;
34212;SDS011;20477;51.390;8.102;2022-08-16T13:07:32;6.78;;;3.58;;
34212;SDS011;20477;51.390;8.102;2022-08-16T13:10:08;7.60;;;3.75;;
34212;SDS011;20477;51.390;8.102;2022-08-16T13:13:01;5.38;;;3.30;;
34212;SDS011;20477;51.390;8.102;2022-08-16T13:15:29;7.43;;;3.53;;
34212;SDS011;20477;51.390;8.102;2022-08-16T13:18:01;8.43;;;4.32;;
34212;SDS011;20477;51.390;8.102;2022-08-16T13:20:48;6.93;;;3.58;;
34212;SDS011;20477;51.390;8.102;2022-08-16T13:23:16;6.85;;;3.83;;
34212;SDS011;20477;51.390;8.102;2022-08-16T13:25:45;8.30;;;3.40;;
34212;SDS011;20477;51.390;8.102;2022-08-16T13:28:15;9.02;;;3.70;;
34212;SDS011;20477;51.390;8.102;2022-08-16T13:30:50;6.88;;;3.75;;
34212;SDS011;20477;51.390;8.102;2022-08-16T13:33:25;6.00;;;3.63;;
34212;SDS011;20477;51.390;8.102;2022-08-16T13:35:58;8.90;;;4.10;;
34212;SDS011;20477;51.390;8.102;2022-08-16T13:38:25;11.07;;;3.85;;
34212;SDS011;20477;51.390;8.102;2022-08-16T13:41:03;9.02;;;3.90;;
34212;SDS011;20477;51.390;8.102;2022-08-16T13:43:33;9.98;;;3.72;;
34212;SDS011;20477;51.390;8.102;2022-08-16T13:46:03;11.98;;;4.03;;
34212;SDS011;20477;51.390;8.102;2022-08-16T13:48:31;7.38;;;3.78;;
34212;SDS011;20477;51.390;8.102;2022-08-16T13:51:10;6.65;;;3.60;;
34212;SDS011;20477;51.390;8.102;2022-08-16T13:53:47;6.82;;;3.78;;
34212;SDS011;20477;51.390;8.102;2022-08-16T13:56:28;3.60;;;3.20;;
34212;SDS011;20477;51.390;8.102;2022-08-16T13:59:08;10.80;;;3.70;;
34212;SDS011;20477;51.390;8.102;2022-08-16T14:01:46;5.72;;;3.85;;
34212;SDS011;20477;51.390;8.102;2022-08-16T14:04:24;7.50;;;3.30;;
34212;SDS011;20477;51.390;8.102;2022-08-16T14:06:57;8.57;;;3.95;;
34212;SDS011;20477;51.390;8.102;2022-08-16T14:09:25;9.32;;;4.00;;
34212;SDS011;20477;51.390;8.102;2022-08-16T14:11:54;9.07;;;3.55;;
34212;SDS011;20477;51.390;8.102;2022-08-16T14:14:26;14.73;;;4.10;;
34212;SDS011;20477;51.390;8.102;2022-08-16T14:16:57;8.02;;;3.67;;
34212;SDS011;20477;51.390;8.102;2022-08-16T14:19:26;5.85;;;3.60;;
34212;SDS011;20477;51.390;8.102;2022-08-16T14:21:56;8.25;;;3.97;;
34212;SDS011;20477;51.390;8.102;2022-08-16T14:24:44;7.85;;;3.53;;
34212;SDS011;20477;51.390;8.102;2022-08-16T14:27:13;5.97;;;3.30;;
34212;SDS011;20477;51.390;8.102;2022-08-16T14:29:45;7.03;;;4.13;;
34212;SDS011;20477;51.390;8.102;2022-08-16T14:32:14;11.35;;;3.60;;
34212;SDS011;20477;51.390;8.102;2022-08-16T14:35:00;10.02;;;3.78;;
34212;SDS011;20477;51.390;8.102;2022-08-16T14:37:29;10.35;;;3.65;;
34212;SDS011;20477;51.390;8.102;2022-08-16T14:39:57;9.25;;;3.75;;
34212;SDS011;20477;51.390;8.102;2022-08-16T14:42:25;5.28;;;3.45;;
34212;SDS011;20477;51.390;8.102;2022-08-16T14:44:51;11.15;;;3.85;;
34212;SDS011;20477;51.390;8.102;2022-08-16T14:47:19;7.22;;;3.53;;
34212;SDS011;20477;51.390;8.102;2022-08-16T14:49:47;7.15;;;3.72;;
34212;SDS011;20477;51.390;8.102;2022-08-16T14:52:19;8.32;;;4.00;;
34212;SDS011;20477;51.390;8.102;2022-08-16T14:55:07;6.65;;;3.53;;
34212;SDS011;20477;51.390;8.102;2022-08-16T14:57:37;10.70;;;4.00;;
34212;SDS011;20477;51.390;8.102;2022-08-16T15:00:05;10.57;;;3.85;;
34212;SDS011;20477;51.390;8.102;2022-08-16T15:02:36;6.72;;;3.75;;
34212;SDS011;20477;51.390;8.102;2022-08-16T15:05:14;9.85;;;3.67;;
34212;SDS011;20477;51.390;8.102;2022-08-16T15:07:42;6.63;;;3.90;;
34212;SDS011;20477;51.390;8.102;2022-08-16T15:10:10;6.82;;;3.33;;
34212;SDS011;20477;51.390;8.102;2022-08-16T15:12:50;9.88;;;3.83;;
34212;SDS011;20477;51.390;8.102;2022-08-16T15:15:24;13.05;;;4.00;;
34212;SDS011;20477;51.390;8.102;2022-08-16T15:17:52;6.20;;;3.63;;
34212;SDS011;20477;51.390;8.102;2022-08-16T15:20:26;9.70;;;4.20;;
34212;SDS011;20477;51.390;8.102;2022-08-16T15:22:55;7.32;;;3.95;;
34212;SDS011;20477;51.390;8.102;2022-08-16T15:25:26;7.22;;;3.38;;
34212;SDS011;20477;51.390;8.102;2022-08-16T15:27:59;8.73;;;4.20;;
34212;SDS011;20477;51.390;8.102;2022-08-16T15:30:30;13.73;;;4.30;;